CheckWX is a tool to help pilots better visualize weather data.  It is not intended as a substitute for an official pre-flight weather briefing.

23:10:14 UTC

06C METAR
Schaumburg Regional Airport
Chicago/Schaumburg, Illinois, USA
Current

35 mins ago

K06C 242235Z AUTO 11003KT 10SM BKN025 21/15 A2996 RMK AO2 T02050147
Observed
May-24 @ 22:35 UTC
Wind
  • 110° at 3 KTS
Visibility
10 SM
Flight Rules
MVFR
Cloud Levels
  • Broken at 2,500' AGL
Temperature
21°C / 70°F
Dewpoint
15°C / 59°F
Humidity
69%
Altimeter
29.96" Hg
Pressure
1014.52 hPa
Previous

55 mins ago

K06C 242215Z AUTO 10003KT 10SM SCT023 20/14 A2998 RMK AO2 T02010141
Observed
May-24 @ 22:15 UTC
Wind
  • 100° at 3 KTS
Visibility
10 SM
Flight Rules
VFR
Cloud Levels
  • Scattered at 2,300' AGL
Temperature
20°C / 68°F
Dewpoint
14°C / 57°F
Humidity
69%
Altimeter
29.98" Hg
Pressure
1015.22 hPa
Previous

1 hour ago

K06C 242155Z AUTO 09003KT 10SM CLR 20/14 A2998 RMK AO2 T02040143
Observed
May-24 @ 21:55 UTC
Wind
  • 090° at 3 KTS
Visibility
10 SM
Flight Rules
VFR
Cloud Levels
  • Clear skies
Temperature
20°C / 68°F
Dewpoint
14°C / 57°F
Humidity
69%
Altimeter
29.98" Hg
Pressure
1015.22 hPa